createdAt,value
2023-03-15T18:35:15.756Z,5.55
2023-03-15T18:37:43.722Z,3.75
2023-03-15T18:40:13.619Z,6.28
2023-03-15T18:42:41.556Z,10.32
2023-03-15T18:45:15.541Z,3.88
2023-03-15T18:47:43.682Z,7.97
2023-03-15T18:50:13.743Z,14.40
2023-03-15T18:52:41.659Z,7.10
2023-03-15T18:55:10.890Z,6.13
2023-03-15T18:57:41.301Z,11.02
2023-03-15T19:00:13.256Z,20.50
2023-03-15T19:02:42.136Z,18.40
2023-03-15T19:05:13.379Z,14.95
2023-03-15T19:07:42.390Z,15.75
2023-03-15T19:10:13.269Z,15.60
2023-03-15T19:12:41.631Z,20.80
2023-03-15T19:15:11.784Z,17.08
2023-03-15T19:17:40.072Z,18.42
2023-03-15T19:20:11.838Z,22.58
2023-03-15T19:22:41.608Z,23.52
2023-03-15T19:25:13.066Z,26.73
2023-03-15T19:27:41.513Z,21.60
2023-03-15T19:30:11.787Z,22.55
2023-03-15T19:32:40.518Z,28.90
2023-03-15T19:35:09.536Z,30.08
2023-03-15T19:37:38.260Z,31.60
2023-03-15T19:40:09.554Z,29.85
2023-03-15T19:42:37.606Z,28.85
2023-03-15T19:45:06.512Z,29.42
2023-03-15T19:47:34.498Z,26.77
2023-03-15T19:50:02.804Z,28.55
2023-03-15T19:52:33.069Z,35.80
2023-03-15T19:55:01.854Z,30.20
2023-03-15T19:57:31.129Z,30.58
2023-03-15T19:59:59.120Z,30.27
2023-03-15T20:02:27.169Z,33.22
2023-03-15T20:04:55.092Z,39.35
2023-03-15T20:07:22.984Z,34.50
2023-03-15T20:09:50.959Z,29.00
2023-03-15T20:12:18.836Z,31.73
2023-03-15T20:14:48.054Z,35.65
2023-03-15T20:17:16.287Z,36.20
2023-03-15T20:19:44.135Z,31.73
2023-03-15T20:22:12.033Z,36.72
2023-03-15T20:24:42.485Z,27.77
2023-03-15T20:27:10.513Z,33.40
2023-03-15T20:29:38.614Z,33.10
2023-03-15T20:32:08.153Z,30.35
2023-03-15T20:34:36.081Z,30.02
2023-03-15T20:37:04.423Z,40.42
2023-03-15T20:39:32.601Z,30.23
2023-03-15T20:42:00.548Z,36.20
2023-03-15T20:44:28.481Z,33.88
2023-03-15T20:46:58.806Z,38.42
2023-03-15T20:49:29.339Z,36.55
2023-03-15T20:51:57.339Z,36.30
2023-03-15T20:54:25.228Z,30.27
2023-03-15T20:56:53.108Z,31.95
2023-03-15T20:59:22.364Z,34.35
2023-03-15T21:01:51.359Z,35.70
2023-03-15T21:04:21.879Z,37.60
2023-03-15T21:06:51.169Z,33.15
2023-03-15T21:09:19.177Z,34.28
2023-03-15T21:11:47.044Z,34.20
2023-03-15T21:14:14.978Z,37.55
2023-03-15T21:16:42.919Z,36.75
2023-03-15T21:19:10.830Z,37.38
2023-03-15T21:21:38.693Z,31.65
2023-03-15T21:24:08.277Z,36.97
2023-03-15T21:26:36.194Z,36.67
2023-03-15T21:29:04.118Z,36.60
2023-03-15T21:31:32.109Z,35.83
2023-03-15T21:34:00.094Z,35.95
2023-03-15T21:36:27.973Z,35.42
2023-03-15T21:38:55.974Z,40.05
2023-03-15T21:41:25.235Z,33.45
2023-03-15T21:43:53.167Z,32.75
2023-03-15T21:46:21.091Z,30.98
2023-03-15T21:48:48.995Z,51.38
2023-03-15T21:51:16.944Z,45.35
2023-03-15T21:53:46.233Z,42.80
2023-03-15T21:56:14.639Z,37.33
2023-03-15T21:58:43.959Z,48.20
2023-03-15T22:01:13.796Z,47.28
2023-03-15T22:03:44.269Z,40.40
2023-03-15T22:06:13.438Z,51.15
2023-03-15T22:08:41.353Z,44.80
2023-03-15T22:11:09.333Z,46.88
2023-03-15T22:13:37.319Z,51.05
2023-03-15T22:16:07.155Z,46.45
2023-03-15T22:18:35.800Z,46.53
2023-03-15T22:21:03.968Z,51.08
2023-03-15T22:23:32.182Z,51.97
2023-03-15T22:26:00.069Z,49.65
2023-03-15T22:28:27.962Z,51.45
2023-03-15T22:30:55.872Z,48.88
2023-03-15T22:33:25.122Z,50.15
2023-03-15T22:35:57.272Z,54.25
2023-03-15T22:38:26.601Z,47.83
2023-03-15T22:41:02.131Z,53.58
2023-03-15T22:43:30.456Z,50.42
2023-03-15T22:45:58.382Z,56.17
2023-03-15T22:48:27.630Z,58.65
2023-03-15T22:51:00.614Z,58.53
2023-03-15T22:53:29.117Z,60.95
2023-03-15T22:55:57.093Z,61.90
2023-03-15T22:58:26.824Z,60.15
2023-03-15T23:00:55.376Z,64.15
2023-03-15T23:03:23.252Z,60.42
2023-03-15T23:05:52.661Z,65.60
2023-03-15T23:08:20.608Z,60.75
2023-03-15T23:10:48.474Z,65.03
2023-03-15T23:13:16.320Z,57.97
2023-03-15T23:15:44.430Z,68.38
2023-03-15T23:18:13.887Z,64.32
2023-03-15T23:20:42.744Z,68.97
2023-03-15T23:23:11.938Z,61.83
2023-03-15T23:25:40.654Z,62.50
2023-03-15T23:28:08.988Z,55.67
2023-03-15T23:30:39.750Z,55.38
2023-03-15T23:33:08.483Z,52.53
2023-03-15T23:35:37.029Z,52.20
2023-03-15T23:38:05.006Z,46.70
2023-03-15T23:40:34.274Z,47.58
2023-03-15T23:43:02.210Z,50.08
2023-03-15T23:45:30.288Z,44.75
2023-03-15T23:47:58.799Z,46.05
2023-03-15T23:50:27.707Z,46.80
2023-03-15T23:52:56.976Z,44.40
2023-03-15T23:55:25.474Z,41.95
2023-03-15T23:57:54.837Z,46.83
